Time;durP1;ratioP1;P1;durP2;ratioP2;P2;SDS_P1;SDS_P2;PMS_P1;PMS_P2;Temp;Humidity;BMP_temperature;BMP_pressure;BME280_temperature;BME280_humidity;BME280_pressure;Samples;Min_cycle;Max_cycle;Signal;HPM_P1;HPM_P2
2022/03/18 00:00:26;;;;;;;13.63;2.28;;;24.30;99.90;;;;;;4916226;29;20020;-73
2022/03/18 00:02:55;;;;;;;12.25;2.28;;;24.40;99.90;;;;;;4901773;29;20401;-70
2022/03/18 00:05:26;;;;;;;8.68;1.80;;;24.50;99.90;;;;;;4927069;29;20034;-70
2022/03/18 00:07:54;;;;;;;6.60;2.13;;;24.60;99.90;;;;;;4935213;29;20053;-71
2022/03/18 00:10:23;;;;;;;10.65;2.35;;;24.80;99.90;;;;;;4925325;29;20301;-71
2022/03/18 00:12:53;;;;;;;6.88;2.03;;;25.00;99.90;;;;;;4916111;29;20024;-71
2022/03/18 00:15:23;;;;;;;11.32;2.17;;;25.10;99.90;;;;;;4916412;29;20111;-71
2022/03/18 00:17:52;;;;;;;11.48;2.10;;;25.10;99.90;;;;;;4916289;29;20024;-73
2022/03/18 00:20:20;;;;;;;12.82;2.63;;;25.20;99.90;;;;;;4915816;29;20111;-73
2022/03/18 00:22:48;;;;;;;9.18;2.40;;;25.10;99.90;;;;;;4916137;29;20055;-73
2022/03/18 00:25:17;;;;;;;7.35;1.88;;;25.20;99.90;;;;;;4916102;29;20032;-72
2022/03/18 00:27:48;;;;;;;9.43;2.42;;;25.10;99.90;;;;;;4915997;29;20024;-72
2022/03/18 00:30:18;;;;;;;10.40;2.50;;;25.10;99.90;;;;;;4915961;29;20083;-70
2022/03/18 00:32:46;;;;;;;9.27;2.28;;;25.10;99.90;;;;;;4915568;29;20044;-74
2022/03/18 00:35:14;;;;;;;9.60;2.47;;;25.20;99.90;;;;;;4915912;29;20032;-72
2022/03/18 00:37:41;;;;;;;10.25;1.98;;;25.20;99.90;;;;;;4915785;29;20048;-71
2022/03/18 00:40:09;;;;;;;11.85;2.20;;;25.20;99.90;;;;;;4915806;29;20024;-73
2022/03/18 00:42:37;;;;;;;12.18;1.90;;;25.30;99.90;;;;;;4915836;29;20099;-72
2022/03/18 00:45:05;;;;;;;10.75;1.98;;;25.30;99.90;;;;;;4915696;29;20060;-73
2022/03/18 00:53:04;;;;;;;10.77;2.05;;;25.50;99.90;;;;;;4915223;29;20023;-72
2022/03/18 00:55:32;;;;;;;6.22;2.20;;;25.60;99.90;;;;;;4915455;29;20051;-71
2022/03/18 00:58:00;;;;;;;11.23;2.42;;;25.60;99.90;;;;;;4915901;29;20032;-73
2022/03/18 01:00:27;;;;;;;6.03;1.67;;;25.70;99.90;;;;;;4915377;29;20031;-73
2022/03/18 01:02:54;;;;;;;13.38;2.20;;;25.90;99.90;;;;;;4915916;29;20111;-75
2022/03/18 01:05:22;;;;;;;9.93;2.00;;;25.90;99.90;;;;;;4915897;29;20107;-75
2022/03/18 01:07:49;;;;;;;6.68;1.40;;;26.00;99.90;;;;;;4914616;29;20032;-72
2022/03/18 01:10:17;;;;;;;6.70;1.55;;;26.10;99.90;;;;;;4915852;29;20032;-77
2022/03/18 01:12:44;;;;;;;7.90;1.83;;;26.10;99.90;;;;;;4915290;29;20107;-77
2022/03/18 01:15:11;;;;;;;9.63;2.05;;;26.20;99.90;;;;;;4918559;29;20024;-73
2022/03/18 01:17:39;;;;;;;9.73;2.08;;;26.40;99.90;;;;;;4899899;29;20674;-71
2022/03/18 01:20:11;;;;;;;8.48;2.65;;;26.50;99.90;;;;;;4915151;29;20016;-71
2022/03/18 01:22:37;;;;;;;;;;;26.60;99.90;;;;;;4932791;29;20031;-71
2022/03/18 01:25:05;;;;;;;7.53;2.22;;;26.70;99.90;;;;;;4926488;29;19929;-71
2022/03/18 01:27:33;;;;;;;5.63;1.20;;;26.80;99.90;;;;;;4914832;29;20028;-72
2022/03/18 01:30:00;;;;;;;8.98;1.08;;;26.90;99.90;;;;;;4914810;29;20036;-70
2022/03/18 01:32:28;;;;;;;7.35;1.00;;;26.90;99.90;;;;;;4915267;29;20051;-76
2022/03/18 01:34:55;;;;;;;7.32;1.50;;;27.00;99.70;;;;;;4915115;29;20070;-82
2022/03/18 01:37:22;;;;;;;5.47;1.00;;;27.20;99.30;;;;;;4898219;29;20016;-81
2022/03/18 01:39:51;;;;;;;9.80;1.48;;;27.30;98.70;;;;;;4915757;29;20074;-80
2022/03/18 01:42:18;;;;;;;5.57;1.13;;;27.40;98.70;;;;;;4915655;29;20059;-73
2022/03/18 01:44:50;;;;;;;7.68;1.55;;;27.60;99.10;;;;;;4915530;29;20063;-80
2022/03/18 01:47:18;;;;;;;7.60;1.42;;;27.80;99.00;;;;;;4915220;29;20115;-77
2022/03/18 01:49:45;;;;;;;10.23;1.48;;;28.00;99.00;;;;;;4915617;29;20071;-74
2022/03/18 01:52:14;;;;;;;6.72;1.83;;;28.10;98.30;;;;;;4915293;29;20024;-75
2022/03/18 01:54:44;;;;;;;8.18;1.25;;;28.10;98.00;;;;;;4914714;29;20144;-81
2022/03/18 01:57:14;;;;;;;8.45;1.60;;;27.90;98.00;;;;;;4914079;29;20025;-81
2022/03/18 01:59:42;;;;;;;8.27;1.60;;;27.90;98.00;;;;;;4917058;29;20032;-79
2022/03/18 02:02:09;;;;;;;6.60;1.45;;;28.00;98.10;;;;;;4917672;29;20024;-80
2022/03/18 02:04:37;;;;;;;8.88;2.22;;;28.20;98.00;;;;;;4918221;29;20035;-73
2022/03/18 02:07:05;;;;;;;16.33;3.08;;;28.40;97.80;;;;;;4918234;29;20024;-74
2022/03/18 02:09:33;;;;;;;8.43;1.95;;;28.70;97.30;;;;;;4918219;29;20043;-72
2022/03/18 02:12:03;;;;;;;5.03;1.00;;;28.90;98.20;;;;;;4919306;29;20036;-82
2022/03/18 02:14:34;;;;;;;6.05;1.27;;;29.20;97.10;;;;;;4919000;29;20052;-79
2022/03/18 02:17:04;;;;;;;8.18;1.52;;;29.40;96.30;;;;;;4918617;29;20024;-80
2022/03/18 02:19:37;;;;;;;5.60;1.52;;;29.40;95.90;;;;;;4914333;29;20044;-74
2022/03/18 02:22:10;;;;;;;3.47;1.23;;;29.60;96.50;;;;;;4918372;29;20028;-71
2022/03/18 02:24:43;;;;;;;8.40;1.60;;;29.90;95.90;;;;;;4918389;29;20028;-71
2022/03/18 02:27:12;;;;;;;8.25;1.98;;;30.10;95.40;;;;;;4918192;29;20031;-74
2022/03/18 02:29:40;;;;;;;8.15;1.55;;;30.40;94.80;;;;;;4918679;29;20036;-72
2022/03/18 02:32:08;;;;;;;8.73;1.90;;;30.60;94.20;;;;;;4918600;29;20024;-76
2022/03/18 02:34:37;;;;;;;6.25;1.55;;;30.80;94.30;;;;;;4917635;29;20048;-74
2022/03/18 02:37:05;;;;;;;6.75;1.58;;;31.00;94.90;;;;;;4917631;29;20047;-76
2022/03/18 02:39:33;;;;;;;7.28;1.58;;;30.60;93.20;;;;;;4918081;29;20158;-72
2022/03/18 02:42:01;;;;;;;8.00;1.77;;;30.50;94.60;;;;;;4918308;29;20028;-74
2022/03/18 02:44:28;;;;;;;9.20;1.45;;;30.60;94.20;;;;;;4918030;29;20529;-74
2022/03/18 02:46:58;;;;;;;6.20;1.42;;;30.50;93.10;;;;;;4917864;29;20070;-70
2022/03/18 02:49:25;;;;;;;5.10;1.60;;;30.20;93.20;;;;;;4921974;29;20420;-72
2022/03/18 02:51:53;;;;;;;7.93;1.52;;;29.90;93.20;;;;;;4918453;29;20024;-72
2022/03/18 02:54:20;;;;;;;7.82;1.70;;;29.80;94.10;;;;;;4900335;29;20028;-76
2022/03/18 02:56:49;;;;;;;7.80;1.80;;;29.60;94.30;;;;;;4919008;29;20015;-72
2022/03/18 02:59:17;;;;;;;8.10;2.17;;;29.70;95.40;;;;;;4928356;29;20024;-71
2022/03/18 03:01:44;;;;;;;10.10;1.90;;;29.60;94.40;;;;;;4917639;29;20035;-71
2022/03/18 03:04:13;;;;;;;7.10;2.03;;;29.40;94.10;;;;;;4900537;29;20574;-70
2022/03/18 03:09:25;;;;;;;9.05;1.90;;;29.30;96.20;;;;;;4935618;29;20034;-71
2022/03/18 03:11:53;;;;;;;8.52;2.33;;;30.40;96.40;;;;;;4935942;29;20028;-71
2022/03/18 03:14:20;;;;;;;7.00;2.22;;;31.40;95.30;;;;;;4936278;29;20082;-72
2022/03/18 03:16:48;;;;;;;9.43;2.53;;;32.50;94.00;;;;;;4936309;29;20035;-70
2022/03/18 03:19:15;;;;;;;9.00;2.03;;;33.50;93.00;;;;;;4928476;29;20028;-72
2022/03/18 03:21:43;;;;;;;7.32;1.98;;;33.90;91.40;;;;;;4917035;29;20051;-73
2022/03/18 03:24:10;;;;;;;11.13;2.47;;;34.20;90.70;;;;;;4917035;29;20111;-70
2022/03/18 03:26:37;;;;;;;7.35;2.05;;;34.50;89.40;;;;;;4916971;29;20078;-68
2022/03/18 03:29:05;;;;;;;12.90;2.47;;;35.20;88.70;;;;;;4916636;29;20060;-75
2022/03/18 03:31:32;;;;;;;11.38;2.88;;;35.80;87.20;;;;;;4916830;29;20106;-70
2022/03/18 03:34:00;;;;;;;11.35;1.80;;;36.10;83.70;;;;;;4916497;29;20052;-74
2022/03/18 03:36:28;;;;;;;8.43;2.10;;;35.50;84.00;;;;;;4916717;29;20039;-68
2022/03/18 03:38:55;;;;;;;10.40;2.55;;;35.20;83.70;;;;;;4916695;29;20059;-71
2022/03/18 03:41:23;;;;;;;6.80;1.75;;;34.60;84.70;;;;;;4916936;29;20473;-70
2022/03/18 03:43:51;;;;;;;11.40;2.42;;;34.00;86.10;;;;;;4921757;29;20039;-68
2022/03/18 03:46:18;;;;;;;9.55;2.08;;;33.70;87.10;;;;;;4935143;29;20043;-67
2022/03/18 03:48:45;;;;;;;10.23;2.20;;;33.80;86.80;;;;;;4931537;29;20067;-72
2022/03/18 03:51:13;;;;;;;12.85;1.88;;;34.40;84.10;;;;;;4916648;29;20062;-70
2022/03/18 03:53:40;;;;;;;7.10;2.05;;;34.50;85.10;;;;;;4916844;29;20107;-70
2022/03/18 03:56:07;;;;;;;8.27;1.80;;;34.50;84.60;;;;;;4916600;29;20025;-70
2022/03/18 03:58:35;;;;;;;9.50;1.95;;;35.10;84.00;;;;;;4916023;29;20035;-67
2022/03/18 04:01:03;;;;;;;7.68;2.38;;;35.70;83.00;;;;;;4934924;29;20027;-68
2022/03/18 04:03:31;;;;;;;11.30;2.88;;;36.30;80.20;;;;;;4935191;29;20027;-71
2022/03/18 04:05:58;;;;;;;10.18;2.05;;;36.80;78.70;;;;;;4935367;29;20024;-72
2022/03/18 04:08:25;;;;;;;7.05;1.70;;;36.80;77.10;;;;;;4933991;29;20103;-70
2022/03/18 04:10:54;;;;;;;8.98;2.28;;;37.00;75.90;;;;;;4916131;29;20123;-69
2022/03/18 04:13:21;;;;;;;9.98;2.20;;;37.20;76.20;;;;;;4916129;29;20460;-69
2022/03/18 04:15:48;;;;;;;10.35;2.30;;;37.00;76.30;;;;;;4916118;29;20055;-68
2022/03/18 04:18:16;;;;;;;7.35;2.25;;;37.50;75.60;;;;;;4915992;29;20028;-69
2022/03/18 04:20:43;;;;;;;7.47;2.40;;;37.70;73.40;;;;;;4914397;29;20020;-71
2022/03/18 04:23:11;;;;;;;8.85;1.98;;;37.60;72.60;;;;;;4915224;29;20031;-69
2022/03/18 04:25:40;;;;;;;6.70;1.35;;;37.70;73.80;;;;;;4914881;29;20024;-70
2022/03/18 04:28:07;;;;;;;7.05;2.45;;;37.90;73.50;;;;;;4915252;29;20024;-68
2022/03/18 04:30:34;;;;;;;7.10;1.98;;;37.90;71.20;;;;;;4914792;29;20042;-69
2022/03/18 04:33:02;;;;;;;6.88;1.88;;;38.00;69.90;;;;;;4915546;29;20384;-70
2022/03/18 04:35:31;;;;;;;4.90;1.15;;;38.10;72.40;;;;;;4915809;29;20027;-71
2022/03/18 04:37:59;;;;;;;5.18;1.48;;;38.20;68.30;;;;;;4915127;29;20106;-68
2022/03/18 04:40:27;;;;;;;6.97;1.92;;;38.30;66.30;;;;;;4915180;29;20500;-68
2022/03/18 04:42:55;;;;;;;5.85;1.63;;;38.30;66.50;;;;;;4930613;29;20040;-71
2022/03/18 04:45:23;;;;;;;5.45;1.67;;;38.30;68.10;;;;;;4933330;29;20114;-71
2022/03/18 04:47:50;;;;;;;4.93;1.65;;;38.40;66.80;;;;;;4916365;29;20024;-73
2022/03/18 04:50:17;;;;;;;4.93;1.40;;;37.50;67.50;;;;;;4918503;29;20032;-70
2022/03/18 04:52:45;;;;;;;4.82;1.73;;;37.60;68.40;;;;;;4914599;29;20028;-75
2022/03/18 04:55:12;;;;;;;5.00;1.30;;;38.00;66.10;;;;;;4934474;29;20024;-70
2022/03/18 04:57:40;;;;;;;4.47;1.50;;;38.10;66.30;;;;;;4934133;29;20024;-72
2022/03/18 05:00:08;;;;;;;4.95;1.23;;;37.70;65.90;;;;;;4920089;29;20027;-70
2022/03/18 05:02:36;;;;;;;5.43;1.33;;;37.90;66.60;;;;;;4930117;29;20110;-69
2022/03/18 05:05:05;;;;;;;4.28;1.23;;;38.00;66.80;;;;;;4932454;29;20028;-69
2022/03/18 05:07:32;;;;;;;5.85;1.15;;;38.20;65.40;;;;;;4932330;29;20024;-70
2022/03/18 05:10:00;;;;;;;5.05;1.55;;;38.40;64.80;;;;;;4918932;29;20067;-70
2022/03/18 05:12:27;;;;;;;6.50;1.38;;;37.60;65.90;;;;;;4927288;29;20578;-71
2022/03/18 05:14:55;;;;;;;6.30;1.50;;;37.80;64.60;;;;;;4932464;29;20039;-70
2022/03/18 05:17:22;;;;;;;6.80;1.38;;;38.00;65.30;;;;;;4932585;29;20365;-72
2022/03/18 05:19:50;;;;;;;6.30;1.80;;;38.30;65.80;;;;;;4920347;29;20397;-68
2022/03/18 05:22:17;;;;;;;6.15;1.70;;;38.20;65.70;;;;;;4925833;29;20043;-68
2022/03/18 05:24:45;;;;;;;5.30;1.60;;;38.40;64.40;;;;;;4932165;29;20038;-68
2022/03/18 05:27:12;;;;;;;6.35;1.27;;;38.60;65.20;;;;;;4931660;29;20099;-68
2022/03/18 05:29:39;;;;;;;4.75;1.67;;;38.80;62.40;;;;;;4931759;29;20042;-70
2022/03/18 05:32:07;;;;;;;8.00;2.58;;;38.60;63.90;;;;;;4932063;29;20103;-72
2022/03/18 05:34:34;;;;;;;4.75;1.30;;;38.60;63.40;;;;;;4936112;29;20039;-71
2022/03/18 05:37:02;;;;;;;11.32;5.60;;;38.70;64.60;;;;;;4935607;29;20062;-71
2022/03/18 05:39:29;;;;;;;8.13;1.88;;;38.60;65.10;;;;;;4926546;29;20520;-70
2022/03/18 05:41:56;;;;;;;7.60;1.70;;;38.60;64.90;;;;;;4928672;29;20055;-70
2022/03/18 05:44:24;;;;;;;6.43;1.42;;;38.90;63.40;;;;;;4928041;29;20091;-72
2022/03/18 05:46:52;;;;;;;7.38;1.35;;;38.60;63.40;;;;;;4933213;29;20024;-71
2022/03/18 05:49:20;;;;;;;8.50;1.83;;;38.60;65.50;;;;;;4929203;29;20477;-72
2022/03/18 05:51:47;;;;;;;5.90;2.10;;;38.60;63.10;;;;;;4910092;29;20588;-68
2022/03/18 05:54:15;;;;;;;7.07;1.17;;;38.40;63.30;;;;;;4937474;29;20023;-68
2022/03/18 05:56:55;;;;;;;6.75;1.58;;;38.40;64.60;;;;;;4936644;29;20030;-72
2022/03/18 05:59:29;;;;;;;7.15;1.80;;;37.70;64.80;;;;;;4928967;29;20063;-74
2022/03/18 06:01:58;;;;;;;7.00;1.92;;;37.60;64.70;;;;;;4928264;29;20023;-69
2022/03/18 06:04:28;;;;;;;6.43;1.63;;;37.70;65.20;;;;;;4937277;29;20062;-68
2022/03/18 06:06:56;;;;;;;6.15;1.70;;;37.90;65.20;;;;;;4936929;29;20087;-72
2022/03/18 06:12:09;;;;;;;5.18;1.52;;;37.90;64.80;;;;;;4940246;29;20114;-69
2022/03/18 06:14:37;;;;;;;6.85;1.85;;;37.60;64.90;;;;;;4936681;29;20126;-69
2022/03/18 06:17:05;;;;;;;8.82;1.90;;;37.20;66.70;;;;;;4936159;29;20123;-72
2022/03/18 06:19:33;;;;;;;10.13;2.08;;;37.00;66.90;;;;;;4927125;29;20024;-68
2022/03/18 06:22:01;;;;;;;8.48;1.80;;;36.80;67.30;;;;;;4925342;29;20035;-75
2022/03/18 06:24:29;;;;;;;10.70;2.55;;;36.60;66.70;;;;;;4917540;29;20088;-76
2022/03/18 06:26:57;;;;;;;9.15;1.88;;;36.30;67.70;;;;;;4932744;29;20473;-76
2022/03/18 06:29:25;;;;;;;5.57;1.50;;;36.30;67.60;;;;;;4928266;29;20111;-72
2022/03/18 06:31:52;;;;;;;6.30;1.83;;;35.90;69.00;;;;;;4926946;29;20032;-75
2022/03/18 06:34:23;;;;;;;8.20;1.83;;;35.90;68.40;;;;;;4936189;29;20404;-71
2022/03/18 06:36:52;;;;;;;8.55;2.10;;;35.80;68.40;;;;;;4936532;29;20024;-68
2022/03/18 06:39:20;;;;;;;6.68;1.83;;;35.50;68.30;;;;;;4928232;29;20024;-70
2022/03/18 06:41:48;;;;;;;7.22;1.90;;;35.00;70.10;;;;;;4909843;29;20055;-71
2022/03/18 06:44:16;;;;;;;11.07;3.30;;;34.80;71.00;;;;;;4936628;29;20400;-70
2022/03/18 06:46:43;;;;;;;8.90;2.00;;;34.90;71.00;;;;;;4938421;29;20027;-70
2022/03/18 06:49:10;;;;;;;5.25;1.90;;;34.50;71.00;;;;;;4939714;29;20020;-72
2022/03/18 06:51:38;;;;;;;10.13;2.33;;;34.30;71.80;;;;;;4936405;29;20071;-71
2022/03/18 06:54:07;;;;;;;7.10;2.38;;;34.40;71.70;;;;;;4940264;29;20024;-74
2022/03/18 06:56:38;;;;;;;6.70;1.85;;;34.70;70.90;;;;;;4940071;29;20429;-78
2022/03/18 06:59:05;;;;;;;11.30;2.20;;;34.80;71.10;;;;;;4956417;29;20098;-75
2022/03/18 07:01:33;;;;;;;8.70;2.08;;;34.60;71.30;;;;;;4949338;29;20102;-72
2022/03/18 07:04:00;;;;;;;8.75;2.38;;;34.40;71.10;;;;;;4936847;29;20024;-73
2022/03/18 07:06:28;;;;;;;8.55;2.25;;;33.80;73.00;;;;;;4936380;29;20094;-72
2022/03/18 07:08:55;;;;;;;9.88;3.03;;;33.30;73.70;;;;;;4936552;29;20032;-72
2022/03/18 07:11:22;;;;;;;10.20;1.80;;;32.60;74.90;;;;;;4935262;29;20034;-72
2022/03/18 07:13:49;;;;;;;6.85;1.60;;;31.80;76.50;;;;;;4917928;29;20385;-72
2022/03/18 07:19:05;;;;;;;6.22;1.48;;;31.00;79.50;;;;;;4935675;29;20035;-80
2022/03/18 07:21:34;;;;;;;8.82;2.65;;;30.50;80.70;;;;;;4929563;29;20032;-72
2022/03/18 07:24:01;;;;;;;7.18;2.08;;;30.20;82.10;;;;;;4916914;29;20025;-74
2022/03/18 07:26:28;;;;;;;5.82;2.78;;;29.60;83.80;;;;;;4929314;29;20087;-72
2022/03/18 07:28:56;;;;;;;11.60;2.38;;;29.10;85.00;;;;;;4936636;29;20079;-76
2022/03/18 07:31:24;;;;;;;12.45;2.25;;;28.70;86.90;;;;;;4918870;29;20032;-76
2022/03/18 07:33:52;;;;;;;10.75;2.53;;;28.40;87.80;;;;;;4936799;29;20058;-75
2022/03/18 07:36:20;;;;;;;10.93;2.15;;;28.30;88.80;;;;;;4936054;29;20487;-77
2022/03/18 07:38:47;;;;;;;9.18;1.80;;;28.20;89.20;;;;;;4919232;29;20122;-72
2022/03/18 07:41:18;;;;;;;9.45;1.90;;;28.00;89.90;;;;;;4919327;29;20070;-74
2022/03/18 07:43:46;;;;;;;14.75;3.00;;;27.80;90.40;;;;;;4918426;29;20106;-68
2022/03/18 07:46:14;;;;;;;9.85;1.67;;;27.70;90.80;;;;;;4928544;29;20464;-71
2022/03/18 07:48:44;;;;;;;16.48;3.90;;;27.60;91.10;;;;;;4934734;29;20027;-70
2022/03/18 07:51:12;;;;;;;9.77;2.60;;;27.40;91.30;;;;;;4935667;29;20028;-77
2022/03/18 07:53:40;;;;;;;10.20;2.92;;;27.30;91.90;;;;;;4899713;29;20028;-73
2022/03/18 07:56:07;;;;;;;10.43;2.33;;;27.20;92.20;;;;;;4898207;29;20389;-71
2022/03/18 07:58:34;;;;;;;8.73;2.47;;;27.10;92.60;;;;;;4916350;29;20028;-73
2022/03/18 08:01:02;;;;;;;12.65;3.47;;;27.10;92.90;;;;;;4918823;29;20039;-74
2022/03/18 08:03:29;;;;;;;9.80;2.40;;;27.00;93.00;;;;;;4934016;29;20074;-70
2022/03/18 08:05:56;;;;;;;7.88;1.88;;;27.00;93.20;;;;;;4922696;29;20064;-71
2022/03/18 08:08:24;;;;;;;14.38;3.78;;;26.90;93.60;;;;;;4935199;29;20083;-69
2022/03/18 08:10:53;;;;;;;10.48;1.83;;;26.90;93.80;;;;;;4917556;29;20035;-73
2022/03/18 08:13:22;;;;;;;9.80;2.13;;;26.80;94.10;;;;;;4916590;29;20023;-71
2022/03/18 08:15:49;;;;;;;6.82;2.08;;;26.70;94.50;;;;;;4934497;29;20036;-69
2022/03/18 08:18:17;;;;;;;11.05;2.65;;;26.70;94.50;;;;;;4934803;29;20031;-72
2022/03/18 08:20:44;;;;;;;6.38;2.00;;;26.60;94.80;;;;;;4934609;29;20027;-74
2022/03/18 08:23:14;;;;;;;13.00;2.88;;;26.60;95.00;;;;;;4934835;29;20023;-70
2022/03/18 08:25:42;;;;;;;9.93;3.15;;;26.50;95.30;;;;;;4934632;29;20055;-72
2022/03/18 08:28:10;;;;;;;12.80;4.00;;;26.40;95.50;;;;;;4934201;29;20107;-71
2022/03/18 08:30:39;;;;;;;9.32;3.53;;;26.20;95.80;;;;;;4934768;29;20096;-71
2022/03/18 08:33:07;;;;;;;12.85;3.38;;;26.20;96.10;;;;;;4915633;29;20048;-71
2022/03/18 08:35:36;;;;;;;14.20;3.47;;;26.10;96.40;;;;;;4917120;29;20545;-70
2022/03/18 08:38:07;;;;;;;11.45;3.70;;;26.10;96.80;;;;;;4934266;29;20504;-70
2022/03/18 08:40:36;;;;;;;13.93;3.92;;;26.10;96.80;;;;;;4911330;29;20020;-73
2022/03/18 08:43:09;;;;;;;11.88;3.70;;;26.00;97.00;;;;;;4916453;29;20034;-70
2022/03/18 08:45:35;;;;;;;;;;;26.00;97.30;;;;;;4934519;29;20027;-70
2022/03/18 08:48:04;;;;;;;9.88;2.65;;;26.00;97.30;;;;;;4934693;29;20374;-74
2022/03/18 08:50:32;;;;;;;8.85;2.60;;;25.90;97.70;;;;;;4917208;29;20051;-73
2022/03/18 08:52:59;;;;;;;7.93;1.85;;;25.90;97.60;;;;;;4916353;29;20023;-70
2022/03/18 08:55:27;;;;;;;12.15;2.72;;;26.00;98.00;;;;;;4923672;29;20090;-72
2022/03/18 08:57:54;;;;;;;13.85;3.35;;;26.00;98.00;;;;;;4933921;29;20055;-69
2022/03/18 09:00:23;;;;;;;12.55;2.40;;;25.90;98.00;;;;;;4916689;29;20540;-69
2022/03/18 09:02:52;;;;;;;10.20;3.78;;;25.90;98.10;;;;;;4915710;29;20038;-71
2022/03/18 09:05:19;;;;;;;16.38;3.10;;;25.90;98.30;;;;;;4933443;29;20049;-70
2022/03/18 09:07:47;;;;;;;14.10;2.90;;;25.80;98.80;;;;;;4933722;29;20019;-69
2022/03/18 09:10:15;;;;;;;16.63;6.88;;;25.90;98.80;;;;;;4933953;29;20040;-71
2022/03/18 09:12:58;;;;;;;8.20;3.22;;;25.90;98.70;;;;;;4933784;29;20038;-70
2022/03/18 09:15:28;;;;;;;10.73;3.28;;;25.90;98.90;;;;;;4933422;29;20034;-70
2022/03/18 09:17:56;;;;;;;12.98;4.15;;;25.90;99.00;;;;;;4934154;29;20027;-71
2022/03/18 09:20:28;;;;;;;10.82;2.95;;;25.90;99.20;;;;;;4934393;29;20675;-70
2022/03/18 09:22:56;;;;;;;11.95;3.90;;;25.90;99.30;;;;;;4933797;29;20027;-68
2022/03/18 09:25:23;;;;;;;11.57;3.85;;;25.80;99.20;;;;;;4933209;29;20019;-71
2022/03/18 09:27:51;;;;;;;14.45;4.53;;;25.70;99.50;;;;;;4933699;29;20034;-70
2022/03/18 09:30:18;;;;;;;8.70;3.20;;;25.60;99.80;;;;;;4933723;29;20051;-71
2022/03/18 09:32:46;;;;;;;14.65;3.17;;;25.50;99.90;;;;;;4933273;29;20111;-72
2022/03/18 09:35:16;;;;;;;11.88;2.83;;;25.60;99.90;;;;;;4933445;29;20028;-70
2022/03/18 09:37:43;;;;;;;11.35;2.17;;;25.50;99.90;;;;;;4933593;29;20385;-75
2022/03/18 09:40:12;;;;;;;11.68;3.55;;;25.60;99.90;;;;;;4931153;29;20477;-70
2022/03/18 09:43:01;;;;;;;11.13;3.22;;;25.60;99.90;;;;;;4929975;29;20627;-70
2022/03/18 09:45:32;;;;;;;12.00;2.75;;;25.60;99.90;;;;;;4933601;29;20062;-72
2022/03/18 09:48:06;;;;;;;11.75;3.33;;;25.70;99.90;;;;;;4934023;29;20016;-71
2022/03/18 09:50:34;;;;;;;13.52;3.58;;;25.70;99.90;;;;;;4933644;29;20038;-71
2022/03/18 09:53:01;;;;;;;20.60;6.57;;;25.70;99.90;;;;;;4933002;29;20092;-70
2022/03/18 09:55:35;;;;;;;25.08;10.15;;;25.60;99.90;;;;;;4933200;29;20027;-72
2022/03/18 09:58:03;;;;;;;9.98;3.78;;;25.20;99.90;;;;;;4933600;29;20054;-70
2022/03/18 10:00:30;;;;;;;6.00;1.92;;;24.50;99.90;;;;;;4933647;29;20365;-71
2022/03/18 10:03:12;;;;;;;7.05;2.85;;;23.80;99.90;;;;;;4933237;29;20020;-71
2022/03/18 10:05:59;;;;;;;7.68;2.63;;;23.30;99.90;;;;;;4933142;29;20116;-70
2022/03/18 10:08:50;;;;;;;6.45;3.15;;;23.10;99.90;;;;;;4933520;29;20404;-71
2022/03/18 10:11:25;;;;;;;8.98;3.72;;;22.90;99.90;;;;;;4932603;29;20028;-71
2022/03/18 10:13:57;;;;;;;5.10;3.85;;;22.80;99.90;;;;;;4933225;29;20042;-71
2022/03/18 10:16:32;;;;;;;7.47;4.00;;;22.70;99.90;;;;;;4932866;29;20031;-71
2022/03/18 10:19:03;;;;;;;12.00;5.22;;;22.40;99.90;;;;;;4934419;29;20519;-72
2022/03/18 10:21:31;;;;;;;7.22;4.90;;;22.30;99.90;;;;;;4936912;29;20078;-69
2022/03/18 10:24:13;;;;;;;7.00;4.38;;;22.40;99.90;;;;;;4936947;29;20111;-72
2022/03/18 10:26:41;;;;;;;7.00;5.30;;;22.30;99.90;;;;;;4933456;29;20026;-71
2022/03/18 10:29:13;;;;;;;17.67;6.70;;;22.30;99.90;;;;;;4936010;29;20016;-74
2022/03/18 10:31:45;;;;;;;13.75;5.65;;;22.30;99.90;;;;;;4936406;29;20561;-72
2022/03/18 10:37:13;;;;;;;15.88;6.13;;;22.40;99.90;;;;;;4927292;29;20503;-69
2022/03/18 10:39:42;;;;;;;18.35;7.50;;;22.40;99.90;;;;;;4925215;29;20106;-68
2022/03/18 10:42:12;;;;;;;16.38;7.45;;;22.40;99.90;;;;;;4918311;29;20028;-69
2022/03/18 10:44:53;;;;;;;14.38;6.70;;;22.30;99.90;;;;;;4917402;29;20429;-69
2022/03/18 10:47:38;;;;;;;15.52;7.13;;;22.30;99.90;;;;;;4934735;29;20544;-69
2022/03/18 10:50:11;;;;;;;14.27;7.07;;;22.30;99.90;;;;;;4936099;29;20028;-68
2022/03/18 10:52:47;;;;;;;8.23;6.22;;;22.40;99.90;;;;;;4936410;29;20090;-71
2022/03/18 10:55:34;;;;;;;16.42;7.78;;;22.40;99.90;;;;;;4918532;29;20688;-71
2022/03/18 10:58:05;;;;;;;17.00;7.38;;;22.50;99.90;;;;;;4932160;29;20472;-73
2022/03/18 11:00:37;;;;;;;20.00;8.27;;;22.50;99.90;;;;;;4916890;29;20120;-70
2022/03/18 11:03:05;;;;;;;17.00;8.40;;;22.50;99.90;;;;;;4916799;29;20625;-71
2022/03/18 11:05:35;;;;;;;18.42;7.82;;;22.60;99.90;;;;;;4903377;29;20342;-72
2022/03/18 11:08:04;;;;;;;19.17;7.85;;;22.60;99.90;;;;;;4935392;29;20027;-72
2022/03/18 11:13:26;;;;;;;17.10;8.07;;;22.70;99.90;;;;;;4929156;29;20055;-70
2022/03/18 11:15:55;;;;;;;17.02;8.38;;;22.70;99.90;;;;;;4923332;29;20627;-71
2022/03/18 11:18:23;;;;;;;16.85;7.15;;;22.70;99.90;;;;;;4936035;29;20040;-75
2022/03/18 11:20:51;;;;;;;13.43;6.95;;;22.70;99.90;;;;;;4936276;29;20024;-70
2022/03/18 11:23:24;;;;;;;15.57;7.95;;;22.80;99.90;;;;;;4935337;29;20036;-72
2022/03/18 11:26:02;;;;;;;17.60;7.95;;;22.90;99.90;;;;;;4922741;29;20024;-72
2022/03/18 11:28:30;;;;;;;20.20;7.70;;;22.90;99.90;;;;;;4927545;29;20023;-70
2022/03/18 11:31:10;;;;;;;15.52;6.93;;;22.80;99.90;;;;;;4935512;29;20589;-73
2022/03/18 11:33:40;;;;;;;18.08;6.45;;;22.80;99.90;;;;;;4935490;29;20082;-74
2022/03/18 11:36:15;;;;;;;17.25;7.20;;;22.80;99.90;;;;;;4926653;29;20024;-70
2022/03/18 11:38:56;;;;;;;15.57;6.30;;;22.80;99.90;;;;;;4933109;29;20031;-70
2022/03/18 11:41:44;;;;;;;14.95;5.43;;;22.80;99.90;;;;;;4935186;29;20059;-70
2022/03/18 11:44:32;;;;;;;18.65;6.57;;;22.70;99.90;;;;;;4935267;29;20396;-72
2022/03/18 11:47:21;;;;;;;11.93;5.78;;;22.80;99.90;;;;;;4918682;29;20114;-70
2022/03/18 11:49:49;;;;;;;16.65;5.38;;;22.70;99.90;;;;;;4899026;29;20497;-71
2022/03/18 11:52:16;;;;;;;12.02;5.47;;;22.70;99.90;;;;;;4916566;29;20028;-70
2022/03/18 11:55:07;;;;;;;22.38;5.88;;;22.60;99.90;;;;;;4916748;29;20536;-73
2022/03/18 11:57:43;;;;;;;18.40;6.25;;;22.60;99.90;;;;;;4920869;29;20020;-72
2022/03/18 12:00:33;;;;;;;11.55;5.00;;;22.60;99.90;;;;;;4926323;29;20111;-71
2022/03/18 12:03:01;;;;;;;13.20;4.97;;;22.50;99.90;;;;;;4925800;29;20016;-70
2022/03/18 12:05:33;;;;;;;15.65;6.25;;;22.50;99.90;;;;;;4925941;29;20477;-70
2022/03/18 12:08:03;;;;;;;13.13;4.78;;;22.60;99.90;;;;;;4924661;29;20044;-72
2022/03/18 12:10:41;;;;;;;12.43;4.65;;;22.50;99.90;;;;;;4925292;29;20400;-70
2022/03/18 12:13:09;;;;;;;17.67;5.93;;;22.60;99.90;;;;;;4926165;29;20023;-70
2022/03/18 12:15:41;;;;;;;15.90;5.20;;;22.50;99.90;;;;;;4925740;29;20437;-73
2022/03/18 12:18:08;;;;;;;14.52;4.82;;;22.50;99.90;;;;;;4922228;29;20039;-72
2022/03/18 12:20:42;;;;;;;16.02;4.97;;;22.50;99.90;;;;;;4924239;29;20503;-74
2022/03/18 12:23:11;;;;;;;12.98;5.05;;;22.50;99.90;;;;;;4926274;29;20036;-72
2022/03/18 12:25:39;;;;;;;10.75;4.65;;;22.60;99.90;;;;;;4924440;29;20027;-71
2022/03/18 12:28:09;;;;;;;13.48;4.90;;;22.60;99.90;;;;;;4909965;29;20441;-71
2022/03/18 12:30:37;;;;;;;13.65;5.93;;;22.70;99.90;;;;;;4924872;29;20049;-73
2022/03/18 12:33:08;;;;;;;15.23;4.70;;;22.60;99.90;;;;;;4926802;29;20068;-71
2022/03/18 12:35:38;;;;;;;16.15;5.05;;;22.60;99.90;;;;;;4923880;29;20071;-69
2022/03/18 12:38:06;;;;;;;13.57;5.38;;;22.60;99.90;;;;;;4924645;29;20023;-69
2022/03/18 12:40:35;;;;;;;19.05;5.32;;;22.60;99.90;;;;;;4909243;29;20019;-71
2022/03/18 12:43:03;;;;;;;14.02;4.93;;;22.60;99.90;;;;;;4907838;29;20485;-72
2022/03/18 12:45:36;;;;;;;11.82;4.38;;;22.60;99.90;;;;;;4923934;29;20024;-74
2022/03/18 12:48:14;;;;;;;13.73;4.28;;;22.60;99.90;;;;;;4924695;29;20127;-72
2022/03/18 12:50:45;;;;;;;11.93;4.97;;;22.60;99.90;;;;;;4925311;29;20091;-72
2022/03/18 12:53:14;;;;;;;18.42;5.45;;;22.60;99.90;;;;;;4924112;29;20026;-72
2022/03/18 12:55:43;;;;;;;9.25;4.32;;;22.70;99.90;;;;;;4917545;29;20055;-72
2022/03/18 12:58:12;;;;;;;15.68;5.63;;;22.70;99.90;;;;;;4916299;29;20022;-72
2022/03/18 13:00:44;;;;;;;9.65;3.95;;;22.70;99.90;;;;;;4915920;29;20075;-71
2022/03/18 13:03:25;;;;;;;15.20;4.88;;;22.70;99.90;;;;;;4915879;29;20020;-73
2022/03/18 13:05:55;;;;;;;10.43;4.50;;;22.70;99.90;;;;;;4916145;29;20024;-71
2022/03/18 13:08:23;;;;;;;10.90;3.83;;;22.80;99.90;;;;;;4916224;29;20020;-71
2022/03/18 13:10:59;;;;;;;14.75;4.78;;;22.80;99.90;;;;;;4915909;29;20029;-71
2022/03/18 13:13:28;;;;;;;14.10;4.95;;;22.80;99.90;;;;;;4916163;29;20127;-73